Ahsahka, Idaho
Current Conditions -  °F | °C
As of 12:56 AM on Monday 22 Dec 2014 (Local Time) from KLWS Reporting Station
Overcast Overcast  
Wind Chill: 45°   Ceiling: 10000
Heat Index: 49°   Visibility: 10mi
Dew Point: 35°   Wind: 9mph
Humidity: 59%   Direction: 300°WNW
Pressure: 30.05"   Gusts: NA
Location:  46.51°N, 116.35°W
Report Text: KLWS 220856Z AUTO 30008KT 10SM OVC100 09/02 A3005 RMK AO2 SLP177 60000 T00940017 53019
Loading
Personal Weather Stations






























Interactive Weather Map New forecast layout! Learn more

10-Day Weather Forecast

Advertisements
Track Severe Weather on mobile